createdAt,value
2023-04-15T00:01:07.915Z,94977.38
2023-04-15T00:03:35.091Z,94969.84
2023-04-15T00:06:02.471Z,94972.22
2023-04-15T00:08:30.029Z,94964.91
2023-04-15T00:10:56.745Z,94965.78
2023-04-15T00:13:23.732Z,94952.69
2023-04-15T00:15:50.366Z,94956.56
2023-04-15T00:18:16.988Z,94958.47
2023-04-15T00:20:43.555Z,94958.19
2023-04-15T00:23:10.178Z,94958.78
2023-04-15T00:25:36.821Z,94956.81
2023-04-15T00:28:04.203Z,94963.41
2023-04-15T00:30:31.527Z,94956.28
2023-04-15T00:32:58.372Z,94961.03
2023-04-15T00:35:25.558Z,94956.81
2023-04-15T00:37:52.186Z,94963.22
2023-04-15T00:40:20.942Z,94970.13
2023-04-15T00:42:47.953Z,94962.31
2023-04-15T00:45:14.605Z,94959.19
2023-04-15T00:47:45.030Z,94951.69
2023-04-15T00:50:12.927Z,94955.97
2023-04-15T00:52:40.710Z,94955.59
2023-04-15T00:55:08.768Z,94947.81
2023-04-15T00:57:36.051Z,94951.78
2023-04-15T01:00:04.699Z,94947.72
2023-04-15T01:02:32.938Z,94942.00
2023-04-15T01:04:59.728Z,94951.22
2023-04-15T01:07:26.377Z,94944.88
2023-04-15T01:09:53.175Z,94948.50
2023-04-15T01:12:20.676Z,94953.03
2023-04-15T01:14:47.455Z,94957.31
2023-04-15T01:17:14.542Z,94952.34
2023-04-15T01:19:41.545Z,94955.97
2023-04-15T01:22:08.560Z,94958.34
2023-04-15T01:24:37.013Z,94950.88
2023-04-15T01:27:05.377Z,94954.94
2023-04-15T01:29:38.519Z,94957.59
2023-04-15T01:32:05.823Z,94953.94
2023-04-15T01:34:34.992Z,94948.28
2023-04-15T01:37:02.311Z,94950.19
2023-04-15T01:39:29.145Z,94945.53
2023-04-15T01:41:55.731Z,94947.81
2023-04-15T01:44:22.771Z,94948.19
2023-04-15T01:46:49.534Z,94939.66
2023-04-15T01:49:16.192Z,94949.84
2023-04-15T01:51:42.809Z,94945.53
2023-04-15T01:54:09.507Z,94941.19
2023-04-15T01:56:36.128Z,94944.53
2023-04-15T01:59:03.870Z,94937.31
2023-04-15T02:01:30.607Z,94934.16
2023-04-15T02:03:57.425Z,94939.25
2023-04-15T02:06:24.628Z,94932.81
2023-04-15T02:08:51.284Z,94932.44
2023-04-15T02:11:18.324Z,94931.66
2023-04-15T02:13:44.908Z,94928.13
2023-04-15T02:16:19.281Z,94929.50
2023-04-15T02:18:47.077Z,94930.22
2023-04-15T02:21:14.156Z,94930.78
2023-04-15T02:23:41.102Z,94930.53
2023-04-15T02:26:08.258Z,94933.41
2023-04-15T02:28:34.959Z,94930.75
2023-04-15T02:31:06.586Z,94931.78
2023-04-15T02:33:33.633Z,94930.19
2023-04-15T02:36:00.387Z,94932.91
2023-04-15T02:38:27.039Z,94920.94
2023-04-15T02:40:53.758Z,94926.66
2023-04-15T02:43:20.442Z,94930.28
2023-04-15T02:45:47.410Z,94926.91
2023-04-15T02:48:14.140Z,94924.53
2023-04-15T02:50:41.071Z,94925.22
2023-04-15T02:53:07.789Z,94919.97
2023-04-15T02:55:34.519Z,94919.31
2023-04-15T02:58:01.294Z,94927.78
2023-04-15T03:00:28.347Z,94925.34
2023-04-15T03:02:59.653Z,94928.38
2023-04-15T03:05:26.688Z,94922.56
2023-04-15T03:07:53.958Z,94924.56
2023-04-15T03:10:21.315Z,94925.72
2023-04-15T03:12:48.437Z,94924.94
2023-04-15T03:15:15.761Z,94921.78
2023-04-15T03:17:42.433Z,94921.25
2023-04-15T03:20:09.706Z,94926.00
2023-04-15T03:22:36.370Z,94926.25
2023-04-15T03:25:02.963Z,94929.75
2023-04-15T03:27:29.607Z,94931.69
2023-04-15T03:29:56.893Z,94928.31
2023-04-15T03:32:23.653Z,94920.41
2023-04-15T03:34:50.371Z,94930.03
2023-04-15T03:37:17.053Z,94921.78
2023-04-15T03:39:43.662Z,94927.09
2023-04-15T03:42:10.270Z,94929.47
2023-04-15T03:44:37.256Z,94933.19
2023-04-15T03:47:03.881Z,94928.47
2023-04-15T03:49:30.576Z,94924.44
2023-04-15T03:51:57.456Z,94925.16
2023-04-15T03:54:24.156Z,94927.88
2023-04-15T03:56:50.827Z,94920.28
2023-04-15T03:59:17.460Z,94921.19
2023-04-15T04:01:44.097Z,94911.72
2023-04-15T04:04:11.126Z,94912.28
2023-04-15T04:06:37.873Z,94916.38
2023-04-15T04:09:04.472Z,94915.53
2023-04-15T04:11:31.802Z,94917.09
2023-04-15T04:13:58.551Z,94913.50
2023-04-15T04:16:25.354Z,94914.66
2023-04-15T04:18:52.113Z,94911.84
2023-04-15T04:21:18.844Z,94906.25
2023-04-15T04:23:45.547Z,94910.56
2023-04-15T04:26:12.169Z,94916.09
2023-04-15T04:28:40.645Z,94912.50
2023-04-15T04:31:07.870Z,94912.28
2023-04-15T04:33:34.634Z,94911.44
2023-04-15T04:36:01.534Z,94910.13
2023-04-15T04:38:28.322Z,94914.22
2023-04-15T04:40:55.004Z,94917.75
2023-04-15T04:43:21.931Z,94923.81
2023-04-15T04:45:48.592Z,94922.03
2023-04-15T04:48:15.297Z,94919.97
2023-04-15T04:50:42.081Z,94930.16
2023-04-15T04:53:09.049Z,94926.72
2023-04-15T04:55:37.120Z,94924.41
2023-04-15T04:58:03.835Z,94915.66
2023-04-15T05:00:30.587Z,94916.19
2023-04-15T05:02:57.450Z,94917.75
2023-04-15T05:05:24.238Z,94912.06
2023-04-15T05:07:51.244Z,94919.03
2023-04-15T05:10:18.362Z,94913.56
2023-04-15T05:12:45.205Z,94916.94
2023-04-15T05:15:12.272Z,94911.56
2023-04-15T05:17:39.074Z,94916.75
2023-04-15T05:20:06.308Z,94912.00
2023-04-15T05:22:33.175Z,94915.28
2023-04-15T05:24:59.945Z,94911.72
2023-04-15T05:27:26.642Z,94914.50
2023-04-15T05:29:53.269Z,94915.72
2023-04-15T05:32:19.941Z,94918.09
2023-04-15T05:34:47.115Z,94922.28
2023-04-15T05:37:13.811Z,94932.19
2023-04-15T05:39:40.502Z,94929.19
2023-04-15T05:42:07.663Z,94938.16
2023-04-15T05:44:34.426Z,94936.06
2023-04-15T05:47:01.071Z,94951.03
2023-04-15T05:49:27.686Z,94947.00
2023-04-15T05:51:54.375Z,94951.63
2023-04-15T05:54:23.256Z,94953.69
2023-04-15T05:56:49.867Z,94959.09
2023-04-15T05:59:16.822Z,94957.31
2023-04-15T06:01:43.940Z,94968.22
2023-04-15T06:04:11.678Z,94971.75
2023-04-15T06:06:38.755Z,94968.44
2023-04-15T06:09:05.417Z,94976.91
2023-04-15T06:11:32.277Z,94983.06
2023-04-15T06:13:58.906Z,94978.97
2023-04-15T06:16:25.666Z,94984.78
2023-04-15T06:18:52.329Z,94989.13
2023-04-15T06:21:19.422Z,94992.78
2023-04-15T06:23:46.352Z,94992.41
2023-04-15T06:26:12.940Z,94996.19
2023-04-15T06:28:39.624Z,94991.59
2023-04-15T06:31:06.477Z,94994.31
2023-04-15T06:33:33.135Z,94999.69
2023-04-15T06:35:59.763Z,95006.66
2023-04-15T06:38:26.563Z,95013.91
2023-04-15T06:40:53.315Z,95012.66
2023-04-15T06:43:20.949Z,95013.31
2023-04-15T06:45:47.730Z,95014.56
2023-04-15T06:48:14.472Z,95015.69
2023-04-15T06:50:41.403Z,95018.47
2023-04-15T06:53:08.066Z,95019.88
2023-04-15T06:55:34.713Z,95021.34
2023-04-15T06:58:01.353Z,95018.78
2023-04-15T07:00:28.797Z,95018.84
2023-04-15T07:02:55.974Z,95013.66
2023-04-15T07:05:23.336Z,95016.94
2023-04-15T07:07:50.342Z,95026.38
2023-04-15T07:10:17.348Z,95017.50
2023-04-15T07:12:44.026Z,95025.41
2023-04-15T07:15:11.118Z,95025.38
2023-04-15T07:17:37.795Z,95019.19
2023-04-15T07:20:05.109Z,95028.06
2023-04-15T07:22:31.760Z,95027.09
2023-04-15T07:24:58.384Z,95031.25
2023-04-15T07:27:25.104Z,95039.56
2023-04-15T07:29:52.337Z,95037.00
2023-04-15T07:32:19.583Z,95029.38
2023-04-15T07:34:46.435Z,95033.34
2023-04-15T07:37:13.693Z,95038.31
2023-04-15T07:39:40.326Z,95039.66
2023-04-15T07:42:07.005Z,95047.13
2023-04-15T07:44:35.705Z,95051.66
2023-04-15T07:47:03.057Z,95053.97
2023-04-15T07:49:29.855Z,95055.00
2023-04-15T07:51:57.711Z,95055.22
2023-04-15T07:54:24.478Z,95057.94
2023-04-15T07:56:51.389Z,95063.25
2023-04-15T07:59:18.222Z,95061.38
2023-04-15T08:01:45.122Z,95060.28
2023-04-15T08:04:12.005Z,95062.47
2023-04-15T08:06:40.023Z,95071.44
2023-04-15T08:09:07.227Z,95071.88
2023-04-15T08:11:34.104Z,95076.59
2023-04-15T08:14:00.712Z,95073.41
2023-04-15T08:16:28.346Z,95081.50
2023-04-15T08:18:56.752Z,95074.50
2023-04-15T08:21:23.995Z,95083.03
2023-04-15T08:23:52.373Z,95083.75
2023-04-15T08:26:20.192Z,95079.16
2023-04-15T08:28:47.553Z,95085.03
2023-04-15T08:31:15.584Z,95084.59
2023-04-15T08:33:42.662Z,95086.94
2023-04-15T08:36:09.447Z,95081.50
2023-04-15T08:38:36.556Z,95095.22
2023-04-15T08:41:07.940Z,95095.84
2023-04-15T08:43:35.870Z,95090.16
2023-04-15T08:46:04.419Z,95091.31
2023-04-15T08:48:33.567Z,95093.41
2023-04-15T08:51:00.966Z,95088.78
2023-04-15T08:53:29.544Z,95088.91
2023-04-15T08:55:57.973Z,95083.03
2023-04-15T08:58:25.525Z,95090.72
2023-04-15T09:00:52.362Z,95089.47
2023-04-15T09:03:19.257Z,95091.16
2023-04-15T09:05:47.065Z,95097.78
2023-04-15T09:08:13.819Z,95100.31
2023-04-15T09:10:40.489Z,95093.31
2023-04-15T09:13:07.153Z,95101.13
2023-04-15T09:15:33.824Z,95094.91
2023-04-15T09:18:00.866Z,95095.25
2023-04-15T09:20:28.026Z,95098.81
2023-04-15T09:22:54.908Z,95104.28
2023-04-15T09:25:24.932Z,95098.63
2023-04-15T09:27:53.080Z,95111.03
2023-04-15T09:30:19.748Z,95099.19
2023-04-15T09:32:54.462Z,95106.56
2023-04-15T09:35:22.464Z,95113.72
2023-04-15T09:37:52.621Z,95117.03
2023-04-15T09:40:37.183Z,95118.00
2023-04-15T09:43:05.589Z,95114.69
2023-04-15T09:45:33.637Z,95112.41
2023-04-15T09:48:15.900Z,95116.03
2023-04-15T09:50:44.027Z,95113.44
2023-04-15T09:53:12.435Z,95119.84
2023-04-15T09:55:39.110Z,95122.16
2023-04-15T09:58:10.370Z,95127.13
2023-04-15T10:00:38.472Z,95131.63
2023-04-15T10:03:06.049Z,95123.03
2023-04-15T10:05:33.196Z,95126.59
2023-04-15T10:08:00.761Z,95137.25
2023-04-15T10:10:27.499Z,95133.63
2023-04-15T10:12:54.715Z,95132.59
2023-04-15T10:15:22.751Z,95141.19
2023-04-15T10:17:53.548Z,95134.75
2023-04-15T10:20:22.647Z,95137.53
2023-04-15T10:22:49.702Z,95140.78
2023-04-15T10:25:16.519Z,95141.19
2023-04-15T10:27:43.680Z,95135.03
2023-04-15T10:30:11.645Z,95135.94
2023-04-15T10:32:38.874Z,95142.38
2023-04-15T10:35:06.872Z,95135.38
2023-04-15T10:37:38.231Z,95144.81
2023-04-15T10:40:29.464Z,95141.13
2023-04-15T10:42:56.675Z,95145.25
2023-04-15T10:45:27.310Z,95145.78
2023-04-15T10:47:58.861Z,95144.59
2023-04-15T10:50:27.809Z,95158.53
2023-04-15T10:52:54.623Z,95150.47
2023-04-15T10:55:24.756Z,95151.59
2023-04-15T10:57:58.316Z,95155.13
2023-04-15T11:00:26.839Z,95154.47
2023-04-15T11:02:59.306Z,95145.63
2023-04-15T11:05:41.546Z,95146.69
2023-04-15T11:08:12.426Z,95146.75
2023-04-15T11:10:38.983Z,95154.00
2023-04-15T11:13:16.683Z,95134.75
2023-04-15T11:15:47.808Z,95148.13
2023-04-15T11:18:22.396Z,95149.06
2023-04-15T11:20:51.725Z,95151.78
2023-04-15T11:23:19.979Z,95151.84
2023-04-15T11:25:47.584Z,95146.84
2023-04-15T11:28:14.396Z,95140.81
2023-04-15T11:30:42.334Z,95141.84
2023-04-15T11:33:10.919Z,95149.31
2023-04-15T11:35:37.618Z,95144.81
2023-04-15T11:38:05.613Z,95156.22
2023-04-15T11:40:35.550Z,95160.41
2023-04-15T11:43:16.715Z,95156.44
2023-04-15T11:45:53.880Z,95164.25
2023-04-15T11:48:23.139Z,95162.78
2023-04-15T11:50:58.006Z,95169.63
2023-04-15T11:53:25.526Z,95166.81
2023-04-15T11:55:54.003Z,95169.94
2023-04-15T11:58:25.422Z,95171.06
2023-04-15T12:00:58.892Z,95169.69
2023-04-15T12:03:36.508Z,95171.63
2023-04-15T12:06:20.489Z,95182.97
2023-04-15T12:09:02.191Z,95177.38
2023-04-15T12:11:31.696Z,95184.88
2023-04-15T12:14:04.040Z,95185.94
2023-04-15T12:16:31.386Z,95183.16
2023-04-15T12:18:59.699Z,95184.88
2023-04-15T12:21:28.188Z,95192.00
2023-04-15T12:23:56.586Z,95193.13
2023-04-15T12:26:43.146Z,95196.81
2023-04-15T12:29:11.701Z,95199.97
2023-04-15T12:31:50.850Z,95207.75
2023-04-15T12:34:18.222Z,95204.97
2023-04-15T12:36:44.819Z,95207.00
2023-04-15T12:39:11.426Z,95222.97
2023-04-15T12:41:38.037Z,95214.97
2023-04-15T12:44:05.625Z,95213.91
2023-04-15T12:46:32.752Z,95207.97
2023-04-15T12:48:59.509Z,95226.13
2023-04-15T12:51:27.382Z,95217.28
2023-04-15T12:53:54.044Z,95207.78
2023-04-15T12:56:20.682Z,95212.22
2023-04-15T12:58:47.521Z,95208.41
2023-04-15T13:01:14.185Z,95212.72
2023-04-15T13:03:41.307Z,95209.78
2023-04-15T13:06:08.295Z,95218.44
2023-04-15T13:08:36.784Z,95214.25
2023-04-15T13:11:05.121Z,95217.41
2023-04-15T13:13:32.060Z,95227.31
2023-04-15T13:15:58.886Z,95216.63
2023-04-15T13:18:25.817Z,95223.31
2023-04-15T13:20:52.629Z,95228.44
2023-04-15T13:23:19.222Z,95232.13
2023-04-15T13:25:45.975Z,95236.75
2023-04-15T13:28:12.933Z,95229.28
2023-04-15T13:30:39.607Z,95238.78
2023-04-15T13:33:06.346Z,95237.84
2023-04-15T13:35:33.831Z,95235.59
2023-04-15T13:38:00.481Z,95243.19
2023-04-15T13:40:27.432Z,95244.13
2023-04-15T13:42:54.064Z,95250.81
2023-04-15T13:45:20.792Z,95257.94
2023-04-15T13:47:47.522Z,95255.56
2023-04-15T13:50:14.281Z,95258.25
2023-04-15T13:52:40.873Z,95264.78
2023-04-15T13:55:19.865Z,95254.50
2023-04-15T13:57:47.932Z,95261.25
2023-04-15T14:00:14.911Z,95264.28
2023-04-15T14:02:42.452Z,95268.91
2023-04-15T14:05:10.886Z,95266.69
2023-04-15T14:07:37.889Z,95266.19
2023-04-15T14:10:05.142Z,95271.66
2023-04-15T14:12:31.827Z,95272.22
2023-04-15T14:14:58.443Z,95282.09
2023-04-15T14:17:25.220Z,95274.31
2023-04-15T14:19:51.932Z,95282.22
2023-04-15T14:22:19.031Z,95289.53
2023-04-15T14:24:45.810Z,95292.41
2023-04-15T14:27:12.640Z,95292.69
2023-04-15T14:29:39.303Z,95292.75
2023-04-15T14:32:12.064Z,95299.28
2023-04-15T14:34:39.599Z,95312.66
2023-04-15T14:37:06.492Z,95304.38
2023-04-15T14:39:33.145Z,95300.47
2023-04-15T14:41:59.962Z,95305.16
2023-04-15T14:44:26.558Z,95306.78
2023-04-15T14:46:53.305Z,95300.47
2023-04-15T14:49:20.027Z,95319.28
2023-04-15T14:51:46.693Z,95319.28
2023-04-15T14:54:13.311Z,95321.22
2023-04-15T14:56:39.955Z,95324.22
2023-04-15T14:59:06.673Z,95319.09
2023-04-15T15:01:34.393Z,95321.63
2023-04-15T15:04:01.357Z,95322.44
2023-04-15T15:06:28.425Z,95324.72
2023-04-15T15:08:55.109Z,95331.72
2023-04-15T15:11:21.787Z,95335.59
2023-04-15T15:13:48.484Z,95345.03
2023-04-15T15:16:15.173Z,95341.59
2023-04-15T15:18:41.836Z,95344.00
2023-04-15T15:21:08.447Z,95343.97
2023-04-15T15:23:35.356Z,95340.50
2023-04-15T15:26:02.053Z,95348.44
2023-04-15T15:28:28.726Z,95347.09
2023-04-15T15:30:55.589Z,95343.75
2023-04-15T15:33:22.564Z,95355.44
2023-04-15T15:35:49.272Z,95353.06
2023-04-15T15:38:16.250Z,95353.13
2023-04-15T15:40:42.857Z,95354.50
2023-04-15T15:43:09.572Z,95351.94
2023-04-15T15:45:36.204Z,95357.59
2023-04-15T15:48:03.001Z,95362.53
2023-04-15T15:50:29.816Z,95362.22
2023-04-15T15:52:56.492Z,95372.03
2023-04-15T15:55:25.250Z,95376.09
2023-04-15T15:57:51.999Z,95364.53
2023-04-15T16:00:18.735Z,95375.66
2023-04-15T16:05:15.040Z,95375.97
2023-04-15T16:07:41.704Z,95380.41
2023-04-15T16:10:08.929Z,95381.72
2023-04-15T16:12:35.723Z,95395.91
2023-04-15T16:15:02.972Z,95393.06
2023-04-15T16:17:29.655Z,95392.41
2023-04-15T16:20:00.283Z,95397.78
2023-04-15T16:22:27.993Z,95398.44
2023-04-15T16:24:54.629Z,95401.56
2023-04-15T16:27:21.344Z,95396.38
2023-04-15T16:29:47.998Z,95406.16
2023-04-15T16:32:14.672Z,95403.44
2023-04-15T16:34:41.589Z,95411.78
2023-04-15T16:37:08.486Z,95411.53
2023-04-15T16:39:35.358Z,95421.25
2023-04-15T16:42:03.275Z,95421.88
2023-04-15T16:44:30.754Z,95434.69
2023-04-15T16:46:57.360Z,95435.19
2023-04-15T16:49:23.936Z,95446.38
2023-04-15T16:51:50.977Z,95445.19
2023-04-15T16:54:18.614Z,95453.56
2023-04-15T16:56:45.294Z,95446.19
2023-04-15T16:59:12.861Z,95451.50
2023-04-15T17:01:39.833Z,95454.19
2023-04-15T17:04:07.320Z,95454.69
2023-04-15T17:06:34.056Z,95452.19
2023-04-15T17:09:00.713Z,95451.56
2023-04-15T17:11:28.118Z,95453.81
2023-04-15T17:13:54.787Z,95460.72
2023-04-15T17:16:21.631Z,95459.09
2023-04-15T17:18:50.286Z,95465.00
2023-04-15T17:21:17.582Z,95472.16
2023-04-15T17:23:44.280Z,95480.41
2023-04-15T17:26:11.173Z,95484.25
2023-04-15T17:28:38.086Z,95482.44
2023-04-15T17:31:05.340Z,95487.19
2023-04-15T17:33:56.283Z,95490.69
2023-04-15T17:36:18.701Z,95494.31
2023-04-15T17:38:45.746Z,95492.09
2023-04-15T17:41:12.615Z,95506.88
2023-04-15T17:43:39.235Z,95506.22
2023-04-15T17:46:08.962Z,95507.31
2023-04-15T17:48:35.850Z,95498.91
2023-04-15T17:51:02.468Z,95517.81
2023-04-15T17:53:29.245Z,95523.41
2023-04-15T17:55:56.693Z,95532.28
2023-04-15T17:58:23.324Z,95528.66
2023-04-15T18:00:49.991Z,95525.44
2023-04-15T18:03:16.852Z,95528.56
2023-04-15T18:05:43.516Z,95544.31
2023-04-15T18:08:10.252Z,95540.31
2023-04-15T18:10:38.376Z,95550.19
2023-04-15T18:13:05.248Z,95548.91
2023-04-15T18:15:32.627Z,95543.78
2023-04-15T18:18:00.336Z,95550.47
2023-04-15T18:20:27.885Z,95558.97
2023-04-15T18:22:55.709Z,95571.22
2023-04-15T18:25:22.373Z,95566.94
2023-04-15T18:27:49.709Z,95566.91
2023-04-15T18:30:16.386Z,95570.09
2023-04-15T18:32:43.388Z,95570.09
2023-04-15T18:35:10.379Z,95572.41
2023-04-15T18:37:37.145Z,95580.13
2023-04-15T18:40:04.143Z,95577.94
2023-04-15T18:42:30.781Z,95582.38
2023-04-15T18:44:57.478Z,95584.38
2023-04-15T18:47:27.021Z,95584.94
2023-04-15T18:49:54.020Z,95586.88
2023-04-15T18:52:21.033Z,95597.75
2023-04-15T18:54:47.708Z,95599.53
2023-04-15T18:57:14.360Z,95605.19
2023-04-15T18:59:47.243Z,95604.84
2023-04-15T19:02:13.891Z,95619.19
2023-04-15T19:04:40.597Z,95618.50
2023-04-15T19:07:09.217Z,95619.47
2023-04-15T19:09:36.432Z,95620.03
2023-04-15T19:12:03.491Z,95632.66
2023-04-15T19:14:30.111Z,95627.03
2023-04-15T19:16:56.834Z,95633.47
2023-04-15T19:19:23.597Z,95632.97
2023-04-15T19:21:50.532Z,95637.72
2023-04-15T19:24:18.220Z,95642.06
2023-04-15T19:26:48.414Z,95642.81
2023-04-15T19:29:15.013Z,95630.16
2023-04-15T19:31:41.649Z,95645.03
2023-04-15T19:34:08.248Z,95643.94
2023-04-15T19:36:34.876Z,95650.34
2023-04-15T19:39:01.775Z,95652.53
2023-04-15T19:41:28.532Z,95653.59
2023-04-15T19:43:55.223Z,95662.31
2023-04-15T19:46:21.963Z,95659.41
2023-04-15T19:48:48.837Z,95670.56
2023-04-15T19:51:15.573Z,95666.25
2023-04-15T19:53:42.235Z,95668.88
2023-04-15T19:56:09.143Z,95659.38
2023-04-15T19:58:35.828Z,95665.22
2023-04-15T20:01:02.450Z,95673.72
2023-04-15T20:03:29.347Z,95672.91
2023-04-15T20:05:56.041Z,95672.59
2023-04-15T20:08:22.520Z,95676.25
2023-04-15T20:10:48.989Z,95676.53
2023-04-15T20:13:15.701Z,95685.00
2023-04-15T20:15:42.409Z,95688.03
2023-04-15T20:18:09.073Z,95690.69
2023-04-15T20:20:35.894Z,95689.59
2023-04-15T20:23:02.542Z,95691.66
2023-04-15T20:25:29.175Z,95691.72
2023-04-15T20:27:57.165Z,95694.88
2023-04-15T20:30:25.433Z,95700.75
2023-04-15T20:32:52.090Z,95699.19
2023-04-15T20:35:19.894Z,95700.81
2023-04-15T20:37:46.507Z,95707.19
2023-04-15T20:40:14.548Z,95707.47
2023-04-15T20:42:43.671Z,95706.91
2023-04-15T20:45:10.766Z,95712.63
2023-04-15T20:47:37.434Z,95720.09
2023-04-15T20:50:04.435Z,95720.56
2023-04-15T20:52:31.181Z,95724.00
2023-04-15T20:54:57.793Z,95721.91
2023-04-15T20:57:27.146Z,95724.28
2023-04-15T20:59:53.752Z,95728.00
2023-04-15T21:02:20.712Z,95727.41
2023-04-15T21:04:47.364Z,95738.03
2023-04-15T21:07:14.052Z,95732.91
2023-04-15T21:09:42.939Z,95744.16
2023-04-15T21:12:11.001Z,95744.38
2023-04-15T21:14:38.261Z,95741.69
2023-04-15T21:17:10.796Z,95739.78
2023-04-15T21:19:38.487Z,95740.09
2023-04-15T21:22:05.098Z,95750.34
2023-04-15T21:24:31.730Z,95750.38
2023-04-15T21:26:58.371Z,95748.78
2023-04-15T21:29:25.706Z,95757.25
2023-04-15T21:31:52.361Z,95759.09
2023-04-15T21:34:19.139Z,95756.53
2023-04-15T21:36:45.745Z,95762.09
2023-04-15T21:39:12.473Z,95763.19
2023-04-15T21:41:39.091Z,95766.38
2023-04-15T21:44:06.117Z,95766.84
2023-04-15T21:46:35.581Z,95759.88
2023-04-15T21:49:03.115Z,95770.69
2023-04-15T21:51:29.957Z,95773.88
2023-04-15T21:53:56.584Z,95777.88
2023-04-15T21:56:24.221Z,95780.59
2023-04-15T21:58:54.218Z,95786.69
2023-04-15T22:01:21.082Z,95785.06
2023-04-15T22:03:47.957Z,95781.34
2023-04-15T22:06:14.766Z,95787.72
2023-04-15T22:08:54.913Z,95783.19
2023-04-15T22:11:26.863Z,95790.44
2023-04-15T22:13:54.725Z,95784.56
2023-04-15T22:16:21.561Z,95792.53
2023-04-15T22:18:48.443Z,95794.72
2023-04-15T22:21:15.187Z,95799.47
2023-04-15T22:23:41.807Z,95814.91
2023-04-15T22:26:08.452Z,95813.56
2023-04-15T22:28:35.041Z,95816.56
2023-04-15T22:31:02.524Z,95810.69
2023-04-15T22:33:29.455Z,95812.84
2023-04-15T22:35:56.470Z,95814.44
2023-04-15T22:38:25.385Z,95813.09
2023-04-15T22:40:53.993Z,95817.56
2023-04-15T22:43:20.758Z,95821.00
2023-04-15T22:45:50.865Z,95819.22
2023-04-15T22:48:18.444Z,95824.00
2023-04-15T22:50:45.195Z,95831.19
2023-04-15T22:53:11.859Z,95823.47
2023-04-15T22:55:38.508Z,95827.22
2023-04-15T22:58:05.225Z,95822.38
2023-04-15T23:00:31.808Z,95821.06
2023-04-15T23:02:58.586Z,95821.81
2023-04-15T23:05:25.438Z,95822.94
2023-04-15T23:07:52.128Z,95817.56
2023-04-15T23:10:18.723Z,95828.50
2023-04-15T23:12:45.398Z,95827.66
2023-04-15T23:15:12.079Z,95829.50
2023-04-15T23:17:38.905Z,95835.66
2023-04-15T23:20:06.455Z,95836.00
2023-04-15T23:22:37.469Z,95844.28
2023-04-15T23:25:05.523Z,95844.28
2023-04-15T23:27:32.228Z,95845.59
2023-04-15T23:29:58.877Z,95841.53
2023-04-15T23:32:25.575Z,95836.41
2023-04-15T23:34:52.312Z,95841.72
2023-04-15T23:37:19.035Z,95839.41
2023-04-15T23:39:45.654Z,95848.91
2023-04-15T23:42:12.386Z,95839.34
2023-04-15T23:44:38.989Z,95841.97
2023-04-15T23:47:05.817Z,95843.56
2023-04-15T23:49:32.466Z,95842.53
2023-04-15T23:51:59.207Z,95845.25
2023-04-15T23:54:25.840Z,95847.16
2023-04-15T23:56:52.464Z,95852.19
2023-04-15T23:59:19.062Z,95850.84
